Time;durP1;ratioP1;P1;durP2;ratioP2;P2;SDS_P1;SDS_P2;PMS_P1;PMS_P2;Temp;Humidity;BMP_temperature;BMP_pressure;BME280_temperature;BME280_humidity;BME280_pressure;Samples;Min_cycle;Max_cycle;Signal;HPM_P1;HPM_P2
2022/02/05 00:02:11;;;;;;;0.40;0.20;;;5.60;99.90;;;;;;5032025;28;20430;-70
2022/02/05 00:04:37;;;;;;;0.40;0.30;;;5.60;99.90;;;;;;5031104;28;20466;-70
2022/02/05 00:07:06;;;;;;;0.40;0.20;;;5.70;99.90;;;;;;5031628;28;20717;-70
2022/02/05 00:41:48;;;;;;;0.40;0.20;;;5.20;99.90;;;;;;5031140;28;20748;-69
2022/02/05 00:44:03;;;;;;;0.40;0.20;;;5.30;99.90;;;;;;5029145;28;20473;-69
2022/02/05 00:46:34;;;;;;;0.40;0.20;;;5.30;99.90;;;;;;5031275;28;20554;-69
2022/02/05 00:49:00;;;;;;;0.40;0.20;;;5.20;99.90;;;;;;5013620;28;20395;-69
2022/02/05 00:51:32;;;;;;;0.40;0.20;;;5.10;99.90;;;;;;5031263;28;20375;-69
2022/02/05 00:54:21;;;;;;;0.40;0.20;;;5.10;99.90;;;;;;5030194;28;20391;-69
2022/02/05 00:59:10;;;;;;;0.40;0.20;;;5.10;99.90;;;;;;5012698;28;20512;-70
2022/02/05 01:01:36;;;;;;;0.40;0.20;;;4.90;99.90;;;;;;5029380;28;20387;-70
2022/02/05 01:04:03;;;;;;;0.40;0.20;;;4.90;99.90;;;;;;5029960;28;20383;-70
2022/02/05 01:06:28;;;;;;;0.40;0.20;;;4.90;99.90;;;;;;5030526;28;20383;-70
2022/02/05 01:08:54;;;;;;;0.40;0.20;;;5.00;99.90;;;;;;5029749;28;20383;-70
2022/02/05 01:11:20;;;;;;;0.40;0.20;;;5.00;99.90;;;;;;5030278;28;20402;-70
2022/02/05 01:13:45;;;;;;;0.40;0.20;;;5.00;99.90;;;;;;5030671;28;20419;-70
2022/02/05 01:18:42;;;;;;;0.40;0.20;;;4.80;99.90;;;;;;5030385;28;20472;-70
2022/02/05 01:23:50;;;;;;;0.40;0.20;;;4.80;99.90;;;;;;5030564;28;20480;-70
2022/02/05 01:26:24;;;;;;;0.40;0.20;;;4.70;99.90;;;;;;5029622;28;20689;-70
2022/02/05 01:28:57;;;;;;;0.40;0.20;;;4.70;99.90;;;;;;5030592;28;20923;-70
2022/02/05 01:31:27;;;;;;;0.40;0.20;;;4.70;99.90;;;;;;5029631;28;20390;-70
2022/02/05 01:34:03;;;;;;;0.40;0.20;;;4.70;99.90;;;;;;5030150;28;20387;-70
2022/02/05 01:58:14;;;;;;;0.40;0.20;;;4.40;99.90;;;;;;5010178;28;20393;-70
2022/02/05 02:11:52;;;;;;;0.40;0.20;;;3.80;99.90;;;;;;5009337;28;20476;-70
2022/02/05 02:22:22;;;;;;;0.40;0.20;;;3.50;99.90;;;;;;5013246;28;20434;-70
2022/02/05 02:32:29;;;;;;;0.40;0.20;;;3.10;99.90;;;;;;5013952;28;20394;-70
2022/02/05 02:35:01;;;;;;;0.40;0.20;;;3.00;99.90;;;;;;5013755;28;20389;-70
2022/02/05 02:37:34;;;;;;;0.40;0.30;;;3.00;99.90;;;;;;5013384;28;20444;-70
2022/02/05 02:42:28;;;;;;;0.40;0.20;;;2.90;99.90;;;;;;5013202;28;20393;-71
2022/02/05 02:44:54;;;;;;;0.40;0.20;;;2.90;99.90;;;;;;5015692;28;20387;-71
2022/02/05 02:47:19;;;;;;;0.40;0.20;;;2.80;99.90;;;;;;5032904;28;20433;-71
2022/02/05 02:50:06;;;;;;;0.40;0.20;;;2.70;99.90;;;;;;5033027;28;20440;-70
2022/02/05 02:56:30;;;;;;;0.40;0.40;;;2.70;99.90;;;;;;5033479;28;20378;-70
2022/02/05 02:58:25;;;;;;;0.40;0.20;;;2.60;99.90;;;;;;5032795;28;20434;-70
2022/02/05 03:00:56;;;;;;;0.40;0.20;;;2.40;99.90;;;;;;5032684;28;20960;-69
2022/02/05 03:03:21;;;;;;;0.40;0.30;;;2.30;99.90;;;;;;5031499;28;20397;-69
2022/02/05 03:05:47;;;;;;;0.40;0.20;;;2.20;99.90;;;;;;5032062;28;20746;-69
2022/02/05 03:08:13;;;;;;;0.40;0.20;;;2.20;99.90;;;;;;5032991;28;20383;-69
2022/02/05 03:10:39;;;;;;;0.40;0.20;;;2.20;99.90;;;;;;5031899;28;20705;-69
2022/02/05 03:13:05;;;;;;;0.40;0.30;;;2.10;99.90;;;;;;5032735;28;20390;-69
2022/02/05 03:15:37;;;;;;;0.40;0.20;;;2.20;99.90;;;;;;5032797;28;20383;-69
2022/02/05 03:18:15;;;;;;;0.40;0.20;;;2.10;99.90;;;;;;5032014;28;21030;-69
2022/02/05 03:20:41;;;;;;;0.40;0.20;;;2.10;99.90;;;;;;5032514;28;20391;-69
2022/02/05 03:23:10;;;;;;;0.40;0.20;;;2.10;99.90;;;;;;5032303;28;20391;-69
2022/02/05 03:25:36;;;;;;;0.40;0.20;;;2.00;99.90;;;;;;5031589;28;20375;-69
2022/02/05 03:28:02;;;;;;;0.40;0.20;;;2.00;99.90;;;;;;5031878;28;20379;-70
2022/02/05 03:30:28;;;;;;;0.40;0.28;;;2.00;99.90;;;;;;5032441;28;20522;-70
2022/02/05 03:32:56;;;;;;;0.40;0.20;;;1.90;99.90;;;;;;5032349;28;20387;-69
2022/02/05 03:35:23;;;;;;;0.40;0.20;;;1.80;99.90;;;;;;5032002;28;20395;-70
2022/02/05 03:37:48;;;;;;;0.40;0.20;;;1.80;99.90;;;;;;5030773;28;20489;-70
2022/02/05 03:40:14;;;;;;;0.40;0.20;;;1.60;99.90;;;;;;5031648;28;20459;-70
2022/02/05 03:42:40;;;;;;;0.50;0.50;;;1.50;99.90;;;;;;5032267;28;20379;-70
2022/02/05 03:45:09;;;;;;;0.40;0.20;;;1.50;99.90;;;;;;5032110;28;20469;-70
2022/02/05 03:47:35;;;;;;;0.40;0.20;;;1.50;99.90;;;;;;5031675;28;20399;-70
2022/02/05 03:50:00;;;;;;;0.40;0.20;;;1.60;99.90;;;;;;5032010;28;20395;-70
2022/02/05 03:52:26;;;;;;;0.40;0.20;;;1.50;99.90;;;;;;5031472;28;20441;-70
2022/02/05 03:54:52;;;;;;;0.40;0.40;;;1.50;99.90;;;;;;5032128;28;20463;-70
2022/02/05 03:57:17;;;;;;;0.40;0.20;;;1.50;99.90;;;;;;5031638;28;20389;-71
2022/02/05 03:59:43;;;;;;;0.40;0.20;;;1.50;99.90;;;;;;5031415;28;20498;-70
2022/02/05 04:02:09;;;;;;;0.40;0.20;;;1.50;99.90;;;;;;5014216;28;20407;-70
2022/02/05 04:04:35;;;;;;;0.40;0.20;;;1.50;99.90;;;;;;5031351;28;20406;-70
2022/02/05 04:07:02;;;;;;;0.40;0.20;;;1.50;99.90;;;;;;5031953;28;20727;-70
2022/02/05 04:09:35;;;;;;;0.40;0.20;;;1.40;99.90;;;;;;5031224;28;20933;-72
2022/02/05 04:17:31;;;;;;;0.40;0.20;;;1.40;99.90;;;;;;5031567;28;20799;-70
2022/02/05 04:19:57;;;;;;;0.40;0.20;;;1.30;99.90;;;;;;5029644;28;20415;-70
2022/02/05 04:22:22;;;;;;;0.40;0.20;;;1.20;99.90;;;;;;5031703;28;20389;-70
2022/02/05 04:24:48;;;;;;;0.40;0.20;;;1.30;99.90;;;;;;5031125;28;20387;-69
2022/02/05 04:27:14;;;;;;;0.40;0.20;;;1.20;99.90;;;;;;5031541;28;20387;-69
2022/02/05 04:29:40;;;;;;;0.40;0.20;;;1.20;99.90;;;;;;5031095;28;20441;-69
2022/02/05 04:32:07;;;;;;;0.40;0.20;;;1.10;99.90;;;;;;5030572;28;20383;-69
2022/02/05 04:34:33;;;;;;;0.40;0.20;;;1.20;99.90;;;;;;5031944;28;20386;-70
2022/02/05 04:37:02;;;;;;;0.40;0.30;;;1.10;99.90;;;;;;5030325;28;20782;-70
2022/02/05 04:39:28;;;;;;;0.40;0.20;;;1.00;99.90;;;;;;5031676;28;20907;-70
2022/02/05 04:58:30;;;;;;;0.40;0.20;;;0.90;99.90;;;;;;5012032;28;20481;-70
2022/02/05 05:09:07;;;;;;;0.40;0.20;;;0.90;99.90;;;;;;4987146;28;20426;-70
2022/02/05 05:11:44;;;;;;;0.40;0.20;;;0.90;99.90;;;;;;5010979;28;20389;-70
2022/02/05 05:21:54;;;;;;;1.20;0.50;;;0.80;99.90;;;;;;5010401;28;20826;-68
2022/02/05 05:24:20;;;;;;;0.40;0.20;;;0.80;99.90;;;;;;5011544;28;20472;-70
2022/02/05 05:26:45;;;;;;;0.40;0.20;;;0.80;99.90;;;;;;5010952;28;20812;-70
2022/02/05 05:29:11;;;;;;;0.40;0.20;;;0.80;99.90;;;;;;5011227;28;20431;-70
2022/02/05 05:31:37;;;;;;;0.40;0.20;;;0.70;99.90;;;;;;5010769;28;20439;-70
2022/02/05 05:34:02;;;;;;;0.40;0.20;;;0.70;99.90;;;;;;5010433;28;20749;-70
2022/02/05 05:36:29;;;;;;;0.40;0.20;;;0.70;99.90;;;;;;5011094;28;20377;-70
2022/02/05 05:39:01;;;;;;;0.40;0.30;;;0.70;99.90;;;;;;4992909;28;20412;-70
2022/02/05 05:41:28;;;;;;;0.40;0.20;;;0.80;99.90;;;;;;5011195;28;20479;-70
2022/02/05 05:46:47;;;;;;;0.40;0.20;;;0.70;99.90;;;;;;5028530;28;20395;-70
2022/02/05 05:49:19;;;;;;;0.40;0.20;;;0.70;99.90;;;;;;5029400;28;20446;-70
2022/02/05 05:51:46;;;;;;;0.40;0.20;;;0.70;99.90;;;;;;5031232;28;20478;-70
2022/02/05 05:54:12;;;;;;;0.40;0.25;;;0.70;99.90;;;;;;5030048;28;20399;-69
2022/02/05 05:56:41;;;;;;;0.40;0.20;;;0.80;99.90;;;;;;5013441;28;20390;-69
2022/02/05 05:59:07;;;;;;;0.52;0.50;;;0.80;99.90;;;;;;4997280;28;20473;-69
2022/02/05 06:01:33;;;;;;;0.40;0.20;;;0.80;99.90;;;;;;5029099;28;21031;-69
2022/02/05 06:03:59;;;;;;;0.40;0.20;;;0.70;99.90;;;;;;5029294;28;20392;-69
2022/02/05 06:06:25;;;;;;;0.40;0.20;;;0.70;99.90;;;;;;5029734;28;20390;-69
2022/02/05 06:08:51;;;;;;;0.40;0.20;;;0.60;99.90;;;;;;5030536;28;20398;-69
2022/02/05 06:11:16;;;;;;;0.40;0.20;;;0.80;99.90;;;;;;5030538;28;20391;-69
2022/02/05 06:13:42;;;;;;;0.40;0.20;;;0.80;99.90;;;;;;5029825;28;20993;-69
2022/02/05 06:16:12;;;;;;;0.40;0.30;;;0.70;99.90;;;;;;5030000;28;20868;-70
2022/02/05 06:18:38;;;;;;;0.40;0.20;;;0.60;99.90;;;;;;5029752;28;20728;-70
2022/02/05 06:21:04;;;;;;;0.40;0.20;;;0.60;99.90;;;;;;5030111;28;20387;-70
2022/02/05 06:23:29;;;;;;;0.40;0.20;;;0.60;99.90;;;;;;5030319;28;20380;-69
2022/02/05 06:25:55;;;;;;;0.40;0.20;;;0.50;99.90;;;;;;5029839;28;21184;-69
2022/02/05 06:28:21;;;;;;;0.40;0.20;;;0.50;99.90;;;;;;5030271;28;20893;-69
2022/02/05 06:30:46;;;;;;;0.40;0.20;;;0.50;99.90;;;;;;5029301;28;20441;-69
2022/02/05 06:33:12;;;;;;;0.40;0.20;;;0.50;99.90;;;;;;5029850;28;20395;-69
2022/02/05 06:35:39;;;;;;;0.40;0.20;;;0.50;99.90;;;;;;5029918;28;20403;-69
2022/02/05 06:38:04;;;;;;;0.40;0.20;;;0.50;99.90;;;;;;5029497;28;20409;-69
2022/02/05 06:40:30;;;;;;;0.40;0.20;;;0.50;99.90;;;;;;5030128;28;20581;-69
2022/02/05 06:42:56;;;;;;;0.40;0.20;;;0.50;99.90;;;;;;5029447;28;20395;-71
2022/02/05 06:45:21;;;;;;;0.40;0.20;;;0.50;99.90;;;;;;5029757;28;20379;-70
2022/02/05 06:47:47;;;;;;;0.40;0.20;;;0.50;99.90;;;;;;5029707;28;20395;-70
2022/02/05 06:50:14;;;;;;;0.40;0.20;;;0.60;99.90;;;;;;5029513;28;20394;-70
2022/02/05 06:52:46;;;;;;;0.40;0.20;;;0.60;99.90;;;;;;5012563;28;20402;-70
2022/02/05 06:55:12;;;;;;;0.40;0.30;;;0.60;99.90;;;;;;5012182;28;20482;-70
2022/02/05 06:57:38;;;;;;;0.40;0.20;;;0.70;99.90;;;;;;5030177;28;20383;-70
2022/02/05 07:00:05;;;;;;;0.40;0.20;;;0.80;99.90;;;;;;5032023;28;20419;-70
2022/02/05 07:02:32;;;;;;;0.40;0.20;;;0.80;99.90;;;;;;5032617;28;20402;-70
2022/02/05 07:04:57;;;;;;;0.40;0.20;;;0.80;99.90;;;;;;5033440;28;20894;-70
2022/02/05 07:07:23;;;;;;;0.40;0.20;;;0.60;99.90;;;;;;5032778;28;20384;-70
2022/02/05 07:09:49;;;;;;;0.40;0.20;;;0.60;99.90;;;;;;5033654;28;20405;-69
2022/02/05 07:12:15;;;;;;;0.40;0.20;;;0.50;99.90;;;;;;5033267;28;20401;-70
2022/02/05 07:17:43;;;;;;;0.40;0.20;;;0.70;99.90;;;;;;5033097;28;20375;-71
2022/02/05 07:30:58;;;;;;;0.40;0.20;;;1.00;99.90;;;;;;5032425;28;20379;-69
2022/02/05 07:33:24;;;;;;;0.40;0.30;;;0.80;99.90;;;;;;5033294;28;20439;-69
2022/02/05 07:35:49;;;;;;;0.40;0.20;;;0.80;99.90;;;;;;5014376;28;20442;-70
2022/02/05 07:38:15;;;;;;;0.40;0.20;;;0.90;99.90;;;;;;5032775;28;20400;-70
2022/02/05 07:40:41;;;;;;;0.40;0.20;;;0.90;99.90;;;;;;5032553;28;20509;-70
2022/02/05 07:43:07;;;;;;;0.40;0.20;;;0.90;99.90;;;;;;5032288;28;20418;-70
2022/02/05 07:45:32;;;;;;;0.50;0.50;;;0.90;99.90;;;;;;5032724;28;20418;-70
2022/02/05 07:47:58;;;;;;;0.40;0.20;;;1.00;99.90;;;;;;5032184;28;20387;-70
2022/02/05 07:50:24;;;;;;;0.40;0.20;;;1.00;99.90;;;;;;5032946;28;20457;-70
2022/02/05 07:52:49;;;;;;;0.40;0.30;;;0.90;99.90;;;;;;5032808;28;20448;-69
2022/02/05 07:55:15;;;;;;;0.40;0.20;;;1.10;99.90;;;;;;5032143;28;20378;-70
2022/02/05 07:57:41;;;;;;;0.40;0.20;;;1.20;99.90;;;;;;5032783;28;20402;-71
2022/02/05 08:00:07;;;;;;;0.40;0.20;;;1.20;99.90;;;;;;5031553;28;20410;-70
2022/02/05 08:02:33;;;;;;;0.40;0.20;;;1.20;99.90;;;;;;5032886;28;20859;-70
2022/02/05 08:04:59;;;;;;;0.40;0.20;;;1.30;99.90;;;;;;5032438;28;20390;-70
2022/02/05 08:07:25;;;;;;;0.40;0.40;;;1.40;99.90;;;;;;5031553;28;20476;-70
2022/02/05 08:12:20;;;;;;;0.40;0.20;;;1.40;99.90;;;;;;5031135;28;20391;-70
2022/02/05 08:14:48;;;;;;;0.40;0.30;;;1.50;99.90;;;;;;5032463;28;20383;-70
2022/02/05 08:17:20;;;;;;;0.40;0.20;;;1.60;99.90;;;;;;5032123;28;20383;-72
2022/02/05 08:19:46;;;;;;;0.40;0.20;;;1.50;99.90;;;;;;5032102;28;20864;-70
2022/02/05 08:22:13;;;;;;;0.40;0.20;;;1.70;99.90;;;;;;5032144;28;20390;-70
2022/02/05 08:24:39;;;;;;;0.40;0.20;;;1.70;99.90;;;;;;5013139;28;20391;-71
2022/02/05 08:27:05;;;;;;;0.40;0.20;;;1.70;99.90;;;;;;5029108;28;20398;-70
2022/02/05 08:29:32;;;;;;;0.40;0.20;;;1.80;99.90;;;;;;5010212;28;20413;-71
2022/02/05 08:31:58;;;;;;;0.40;0.20;;;1.80;99.90;;;;;;5030325;28;20795;-70
2022/02/05 08:34:24;;;;;;;0.40;0.30;;;1.80;99.90;;;;;;5031110;28;20395;-73
2022/02/05 08:36:51;;;;;;;0.70;0.50;;;2.00;99.90;;;;;;5030312;28;20406;-71
2022/02/05 08:39:17;;;;;;;0.40;0.20;;;2.20;99.90;;;;;;5031478;28;20779;-70
2022/02/05 08:41:44;;;;;;;0.40;0.20;;;2.20;99.90;;;;;;5030584;28;20391;-70
2022/02/05 08:44:10;;;;;;;0.40;0.20;;;2.30;99.90;;;;;;5013650;28;20383;-71
2022/02/05 08:46:36;;;;;;;0.60;0.60;;;2.30;99.90;;;;;;5030480;28;20470;-71
2022/02/05 08:49:03;;;;;;;0.40;0.20;;;2.30;99.90;;;;;;5013506;28;20894;-71
2022/02/05 08:51:30;;;;;;;1.40;0.90;;;2.30;99.90;;;;;;5031283;28;20372;-71
2022/02/05 08:53:55;;;;;;;0.40;0.20;;;2.40;99.90;;;;;;5030408;28;20395;-71
2022/02/05 08:56:24;;;;;;;0.40;0.20;;;2.50;99.90;;;;;;5031388;28;20863;-71
2022/02/05 08:58:51;;;;;;;0.50;0.50;;;2.60;99.90;;;;;;5030036;28;20752;-71
2022/02/05 09:01:22;;;;;;;0.40;0.20;;;2.70;99.90;;;;;;5031321;28;20449;-71
2022/02/05 09:06:33;;;;;;;0.40;0.30;;;2.70;99.90;;;;;;5031072;28;20391;-71
2022/02/05 09:09:09;;;;;;;0.40;0.30;;;2.90;99.90;;;;;;5011103;28;20466;-71
2022/02/05 09:11:52;;;;;;;0.70;0.70;;;2.90;99.90;;;;;;5028966;28;20463;-71
2022/02/05 09:16:56;;;;;;;0.40;0.20;;;3.10;99.90;;;;;;5025413;28;20752;-71
2022/02/05 09:19:22;;;;;;;0.40;0.20;;;3.20;99.90;;;;;;5030175;28;20505;-71
2022/02/05 09:21:47;;;;;;;0.90;0.90;;;3.30;99.90;;;;;;5030902;28;20597;-70
2022/02/05 09:24:13;;;;;;;0.40;0.20;;;3.40;99.90;;;;;;5011569;28;20387;-71
2022/02/05 09:26:44;;;;;;;0.40;0.20;;;3.40;99.90;;;;;;5030127;28;20443;-71
2022/02/05 09:29:19;;;;;;;0.40;0.20;;;3.40;99.90;;;;;;5012055;28;20391;-71
2022/02/05 09:31:45;;;;;;;0.40;0.30;;;3.50;99.90;;;;;;5030746;28;20506;-71
2022/02/05 09:34:11;;;;;;;0.50;0.50;;;3.60;99.90;;;;;;5027127;28;20503;-71
2022/02/05 09:36:39;;;;;;;0.40;0.20;;;3.80;99.90;;;;;;5030334;28;20403;-71
2022/02/05 09:39:06;;;;;;;0.40;0.20;;;3.80;99.90;;;;;;5028855;28;20903;-71
2022/02/05 09:41:32;;;;;;;0.50;0.50;;;3.80;99.90;;;;;;5030733;28;20898;-71
2022/02/05 09:43:58;;;;;;;0.40;0.20;;;3.90;99.90;;;;;;5029059;28;20383;-72
2022/02/05 09:46:24;;;;;;;0.40;0.20;;;4.00;99.90;;;;;;5028204;28;20379;-71
2022/02/05 09:48:52;;;;;;;0.40;0.30;;;4.20;99.90;;;;;;5030523;28;20399;-71
2022/02/05 09:51:24;;;;;;;0.40;0.30;;;4.30;99.90;;;;;;5030020;28;20383;-71
2022/02/05 09:53:55;;;;;;;0.40;0.22;;;4.40;99.90;;;;;;5030196;28;20379;-71
2022/02/05 09:56:23;;;;;;;0.40;0.20;;;4.50;99.90;;;;;;5028054;28;20914;-71
2022/02/05 09:58:49;;;;;;;0.40;0.20;;;4.60;99.90;;;;;;5028891;28;20426;-71
2022/02/05 10:01:19;;;;;;;0.40;0.20;;;4.70;99.90;;;;;;5010745;28;20427;-72
2022/02/05 10:03:46;;;;;;;0.40;0.30;;;4.80;99.90;;;;;;5012662;28;20391;-71
2022/02/05 10:06:17;;;;;;;0.40;0.20;;;4.80;99.90;;;;;;5029556;28;20475;-72
2022/02/05 10:08:54;;;;;;;0.40;0.28;;;4.80;99.90;;;;;;5030149;28;20418;-73
2022/02/05 10:11:20;;;;;;;0.40;0.20;;;4.90;99.90;;;;;;5029607;28;20396;-74
2022/02/05 10:13:46;;;;;;;0.50;0.40;;;4.90;99.90;;;;;;5030318;28;20393;-73
2022/02/05 10:16:12;;;;;;;0.40;0.40;;;5.00;99.90;;;;;;5027797;28;20414;-74
2022/02/05 10:18:43;;;;;;;0.40;0.20;;;5.10;99.90;;;;;;5028592;28;20376;-73
2022/02/05 10:21:20;;;;;;;0.40;0.30;;;5.10;99.90;;;;;;5028132;28;20709;-74
2022/02/05 10:24:04;;;;;;;0.40;0.20;;;5.30;99.90;;;;;;5029369;28;20397;-73
2022/02/05 10:26:36;;;;;;;0.40;0.20;;;5.30;99.90;;;;;;5026578;28;20485;-74
2022/02/05 10:29:09;;;;;;;0.40;0.20;;;5.40;99.90;;;;;;5027834;28;20449;-73
2022/02/05 10:31:53;;;;;;;0.40;0.20;;;5.60;99.90;;;;;;5026943;28;20751;-74
2022/02/05 10:34:19;;;;;;;0.40;0.20;;;5.70;99.90;;;;;;5012838;28;20387;-73
2022/02/05 10:36:46;;;;;;;0.40;0.20;;;5.80;99.90;;;;;;5032427;28;20457;-73
2022/02/05 10:44:35;;;;;;;0.40;0.20;;;5.90;99.90;;;;;;5034058;28;20997;-73
2022/02/05 10:47:00;;;;;;;0.40;0.20;;;5.80;99.90;;;;;;5032822;28;20465;-74
2022/02/05 10:49:38;;;;;;;0.40;0.20;;;5.90;99.60;;;;;;5031132;28;20402;-74
2022/02/05 10:52:04;;;;;;;0.40;0.20;;;6.00;99.80;;;;;;5033083;28;20428;-74
2022/02/05 10:54:49;;;;;;;0.40;0.30;;;6.30;99.90;;;;;;5033721;28;20445;-74
2022/02/05 10:57:36;;;;;;;0.40;0.20;;;6.40;99.80;;;;;;5033571;28;20417;-74
2022/02/05 11:05:42;;;;;;;0.40;0.20;;;6.60;97.30;;;;;;5033620;28;20770;-73
2022/02/05 11:08:09;;;;;;;0.40;0.20;;;6.80;96.80;;;;;;5018647;28;20389;-74
2022/02/05 11:18:57;;;;;;;0.40;0.20;;;6.90;95.80;;;;;;5033151;28;20426;-74
2022/02/05 11:21:24;;;;;;;0.40;0.20;;;7.20;95.10;;;;;;5031961;28;21022;-73
2022/02/05 11:23:53;;;;;;;0.50;0.50;;;7.10;94.40;;;;;;5014848;28;20922;-74
2022/02/05 11:26:20;;;;;;;0.40;0.20;;;7.50;94.30;;;;;;5032643;28;20886;-74
2022/02/05 11:28:47;;;;;;;0.40;0.20;;;7.80;93.70;;;;;;5032922;28;20379;-73
2022/02/05 11:31:38;;;;;;;0.40;0.20;;;7.40;93.00;;;;;;5032729;28;20392;-74
2022/02/05 11:34:13;;;;;;;0.40;0.20;;;8.00;92.20;;;;;;5018730;28;20771;-73
2022/02/05 11:36:40;;;;;;;0.40;0.20;;;8.60;88.90;;;;;;5032585;28;20403;-73
2022/02/05 11:39:07;;;;;;;0.40;0.20;;;9.20;86.40;;;;;;5032784;28;20541;-74
2022/02/05 11:41:35;;;;;;;0.40;0.20;;;9.70;83.70;;;;;;5032411;28;20434;-73
2022/02/05 11:44:25;;;;;;;0.40;0.20;;;9.90;78.20;;;;;;5032937;28;20739;-73
2022/02/05 11:47:10;;;;;;;0.40;0.20;;;9.90;79.10;;;;;;5032526;28;20392;-73
2022/02/05 11:49:55;;;;;;;0.40;0.20;;;10.00;77.70;;;;;;5031987;28;20387;-73
2022/02/05 11:52:36;;;;;;;0.40;0.30;;;9.80;78.70;;;;;;5032673;28;20399;-73
2022/02/05 11:55:02;;;;;;;0.40;0.20;;;9.60;79.50;;;;;;5032728;28;20423;-75
2022/02/05 11:57:44;;;;;;;0.40;0.20;;;10.60;79.80;;;;;;5032023;28;20423;-73
2022/02/05 12:00:18;;;;;;;0.40;0.20;;;10.40;77.10;;;;;;5032565;28;20411;-73
2022/02/05 12:02:53;;;;;;;0.40;0.20;;;10.20;79.60;;;;;;5032180;28;20790;-74
2022/02/05 12:05:26;;;;;;;0.40;0.20;;;10.80;78.50;;;;;;5032482;28;20387;-72
2022/02/05 12:08:04;;;;;;;0.40;0.20;;;10.90;77.20;;;;;;5031768;28;20547;-73
2022/02/05 12:10:50;;;;;;;0.40;0.30;;;10.70;80.20;;;;;;5031119;28;20407;-73
2022/02/05 12:13:41;;;;;;;0.40;0.20;;;11.30;78.60;;;;;;5029729;28;20465;-74
2022/02/05 12:16:08;;;;;;;0.40;0.20;;;11.10;76.30;;;;;;5032584;28;20810;-74
2022/02/05 12:18:57;;;;;;;0.40;0.30;;;11.60;75.00;;;;;;5032116;28;20387;-72
2022/02/05 12:21:30;;;;;;;0.40;0.30;;;11.30;73.70;;;;;;5031903;28;20406;-72
2022/02/05 12:26:32;;;;;;;0.40;0.20;;;10.30;74.50;;;;;;5032055;28;20445;-73
2022/02/05 12:29:01;;;;;;;0.40;0.40;;;11.60;74.50;;;;;;5030606;28;20485;-73
2022/02/05 12:31:33;;;;;;;0.40;0.20;;;12.10;72.80;;;;;;5031802;28;20792;-72
2022/02/05 12:34:02;;;;;;;0.40;0.30;;;10.20;74.60;;;;;;5031173;28;20391;-73
2022/02/05 12:36:28;;;;;;;0.40;0.20;;;10.80;75.10;;;;;;5013873;28;20751;-72
2022/02/05 12:38:56;;;;;;;0.40;0.20;;;11.80;72.70;;;;;;5030937;28;20470;-73
2022/02/05 12:41:22;;;;;;;0.40;0.32;;;11.70;71.60;;;;;;5031340;28;20410;-73
2022/02/05 12:43:59;;;;;;;0.40;0.20;;;10.60;73.80;;;;;;5013984;28;20430;-73
2022/02/05 12:46:53;;;;;;;0.40;0.20;;;11.10;72.60;;;;;;5031664;28;20437;-73
2022/02/05 12:49:27;;;;;;;0.40;0.22;;;11.60;73.40;;;;;;5030890;28;20395;-73
2022/02/05 12:51:54;;;;;;;0.40;0.20;;;12.10;72.10;;;;;;5031798;28;20441;-73
2022/02/05 12:54:23;;;;;;;0.40;0.20;;;11.00;72.10;;;;;;5030694;28;20949;-73
2022/02/05 12:56:49;;;;;;;0.40;0.20;;;9.80;76.50;;;;;;5014273;28;20398;-71
2022/02/05 12:59:26;;;;;;;0.40;0.30;;;11.50;72.30;;;;;;5013220;28;20457;-73
2022/02/05 13:01:54;;;;;;;0.40;0.20;;;12.30;70.70;;;;;;5031703;28;20478;-72
2022/02/05 13:04:35;;;;;;;0.40;0.30;;;12.60;69.40;;;;;;5030864;28;20401;-72
2022/02/05 13:07:21;;;;;;;0.45;0.38;;;11.10;71.10;;;;;;5032117;28;20383;-72
2022/02/05 13:10:04;;;;;;;0.40;0.30;;;12.00;70.70;;;;;;5031358;28;20403;-72
2022/02/05 13:12:33;;;;;;;0.40;0.30;;;11.50;71.50;;;;;;5030451;28;20393;-71
2022/02/05 13:15:09;;;;;;;0.40;0.20;;;11.30;71.10;;;;;;5031316;28;20819;-73
2022/02/05 13:17:44;;;;;;;0.40;0.30;;;11.40;69.90;;;;;;5030454;28;20982;-73
2022/02/05 13:24:44;;;;;;;0.40;0.20;;;11.40;70.80;;;;;;5031532;28;20441;-73
2022/02/05 13:28:47;;;;;;;0.40;0.20;;;11.70;68.70;;;;;;5030360;28;20379;-73
2022/02/05 13:42:03;;;;;;;0.40;0.20;;;11.90;67.00;;;;;;5029610;28;20402;-73
2022/02/05 13:45:24;;;;;;;3.10;0.80;;;11.80;66.60;;;;;;5030438;28;20437;-73
2022/02/05 13:47:44;;;;;;;0.40;0.20;;;11.50;67.90;;;;;;5029126;28;20411;-73
2022/02/05 13:50:19;;;;;;;0.40;0.20;;;11.40;68.30;;;;;;5030748;28;20394;-73
2022/02/05 13:52:51;;;;;;;0.40;0.30;;;11.40;65.70;;;;;;5029849;28;20789;-72
2022/02/05 13:55:21;;;;;;;0.40;0.20;;;10.70;67.10;;;;;;5030819;28;20383;-72
2022/02/05 13:58:08;;;;;;;0.40;0.30;;;11.00;67.20;;;;;;5030086;28;20395;-73
2022/02/05 14:00:54;;;;;;;0.40;0.20;;;12.00;67.50;;;;;;5030622;28;20407;-72
2022/02/05 14:03:35;;;;;;;0.40;0.20;;;11.70;64.70;;;;;;5030807;28;20450;-70
2022/02/05 14:06:08;;;;;;;0.40;0.40;;;10.90;64.20;;;;;;5029618;28;20386;-72
2022/02/05 14:08:45;;;;;;;0.40;0.20;;;10.30;64.90;;;;;;5030706;28;20552;-72
2022/02/05 14:11:14;;;;;;;0.40;0.30;;;10.40;64.20;;;;;;5034604;28;20395;-73
2022/02/05 14:13:41;;;;;;;0.40;0.20;;;11.40;64.30;;;;;;5034694;28;20375;-73
2022/02/05 14:16:09;;;;;;;0.40;0.20;;;11.10;64.80;;;;;;5016122;28;20383;-72
2022/02/05 14:18:52;;;;;;;0.40;0.20;;;11.70;62.70;;;;;;5016965;28;20391;-72
2022/02/05 14:21:30;;;;;;;0.40;0.20;;;11.70;64.40;;;;;;5034245;28;20407;-73
2022/02/05 14:23:57;;;;;;;0.40;0.30;;;11.70;65.00;;;;;;5033607;28;20390;-72
2022/02/05 14:26:34;;;;;;;0.40;0.20;;;11.20;63.30;;;;;;5034308;28;20383;-72
2022/02/05 14:29:02;;;;;;;0.40;0.20;;;11.60;65.00;;;;;;5032168;28;20463;-72
2022/02/05 14:31:45;;;;;;;0.40;0.40;;;11.70;66.30;;;;;;5034627;28;20379;-72
2022/02/05 14:34:20;;;;;;;0.40;0.20;;;12.00;67.00;;;;;;5015792;28;20391;-73
2022/02/05 14:42:11;;;;;;;0.40;0.20;;;12.50;65.90;;;;;;5033469;28;20413;-72
2022/02/05 14:44:37;;;;;;;0.40;0.20;;;11.80;66.50;;;;;;5033891;28;20483;-72
2022/02/05 14:47:06;;;;;;;0.40;0.20;;;12.10;65.70;;;;;;5033834;28;20933;-72
2022/02/05 14:49:32;;;;;;;0.40;0.20;;;11.10;68.60;;;;;;5033787;28;20387;-72
2022/02/05 14:52:01;;;;;;;0.40;0.28;;;10.00;70.70;;;;;;5033913;28;20379;-73
2022/02/05 14:54:28;;;;;;;0.40;0.20;;;9.40;75.50;;;;;;5033445;28;20529;-73
2022/02/05 14:56:54;;;;;;;0.40;0.30;;;9.00;78.10;;;;;;5033948;28;20478;-72
2022/02/05 14:59:20;;;;;;;0.40;0.20;;;9.00;80.20;;;;;;5033123;28;21005;-73
2022/02/05 15:01:48;;;;;;;0.40;0.20;;;9.00;79.60;;;;;;5033913;28;20406;-73
2022/02/05 15:04:14;;;;;;;0.40;0.20;;;8.90;80.00;;;;;;5015743;28;20387;-73
2022/02/05 15:06:41;;;;;;;0.40;0.20;;;8.80;80.40;;;;;;5033169;28;20406;-73
2022/02/05 15:09:07;;;;;;;0.40;0.20;;;8.50;82.40;;;;;;5016155;28;20387;-73
2022/02/05 15:11:34;;;;;;;0.40;0.20;;;8.70;80.90;;;;;;5032575;28;20886;-73
2022/02/05 15:14:02;;;;;;;0.40;0.20;;;8.60;81.30;;;;;;5033898;28;20510;-72
2022/02/05 15:16:30;;;;;;;0.40;0.20;;;8.40;82.20;;;;;;5015136;28;20890;-73
2022/02/05 15:18:57;;;;;;;0.40;0.20;;;8.50;83.40;;;;;;5033503;28;20445;-73
2022/02/05 15:21:27;;;;;;;0.40;0.20;;;8.40;83.80;;;;;;5031768;28;20379;-72
2022/02/05 15:23:55;;;;;;;0.40;0.20;;;8.20;83.90;;;;;;5033757;28;20441;-72
2022/02/05 15:26:22;;;;;;;0.40;0.40;;;8.30;84.00;;;;;;5033228;28;20441;-71
2022/02/05 15:28:49;;;;;;;0.40;0.20;;;8.20;84.00;;;;;;5032563;28;20565;-73
2022/02/05 15:31:16;;;;;;;1.10;0.80;;;8.30;84.60;;;;;;5033356;28;20387;-71
2022/02/05 15:33:44;;;;;;;0.40;0.20;;;8.30;83.50;;;;;;5014740;28;20906;-72
2022/02/05 15:36:27;;;;;;;0.40;0.30;;;8.40;85.00;;;;;;5033115;28;20379;-72
2022/02/05 15:44:07;;;;;;;0.40;0.20;;;8.20;87.10;;;;;;5033177;28;20902;-73
2022/02/05 15:46:32;;;;;;;0.70;0.70;;;8.30;87.10;;;;;;5033042;28;20383;-72
2022/02/05 15:48:58;;;;;;;0.40;0.20;;;8.50;85.90;;;;;;5032263;28;20387;-71
2022/02/05 15:51:28;;;;;;;0.40;0.30;;;8.20;85.30;;;;;;5015117;28;20419;-72
2022/02/05 15:53:58;;;;;;;0.40;0.40;;;8.10;85.20;;;;;;5032190;28;20375;-72
2022/02/05 15:59:17;;;;;;;0.40;0.20;;;7.90;86.10;;;;;;5032125;28;20422;-73
2022/02/05 16:01:42;;;;;;;0.40;0.20;;;7.80;86.60;;;;;;5032385;28;20389;-72
2022/02/05 16:04:08;;;;;;;0.40;0.20;;;7.70;87.10;;;;;;5031981;28;20379;-72
2022/02/05 16:06:35;;;;;;;0.40;0.20;;;7.60;87.50;;;;;;5032473;28;20409;-73
2022/02/05 16:09:04;;;;;;;0.40;0.20;;;7.50;88.40;;;;;;5031767;28;20403;-73
2022/02/05 16:11:31;;;;;;;0.40;0.20;;;7.40;89.20;;;;;;5032606;28;20403;-73
2022/02/05 16:13:56;;;;;;;0.63;0.43;;;7.40;90.00;;;;;;5032042;28;20809;-73
2022/02/05 16:16:22;;;;;;;0.40;0.30;;;7.30;89.70;;;;;;5032471;28;20411;-72
2022/02/05 16:18:48;;;;;;;0.40;0.20;;;7.20;90.30;;;;;;5032089;28;20919;-73
2022/02/05 16:21:14;;;;;;;0.40;0.20;;;7.30;90.20;;;;;;5013858;28;20415;-73
2022/02/05 16:23:40;;;;;;;0.40;0.30;;;7.20;90.40;;;;;;5032284;28;20379;-72
2022/02/05 16:26:06;;;;;;;0.40;0.20;;;7.10;90.70;;;;;;5031140;28;20382;-73
2022/02/05 16:28:34;;;;;;;0.40;0.20;;;7.00;90.90;;;;;;5032295;28;20411;-72
2022/02/05 16:31:01;;;;;;;0.40;0.20;;;7.10;90.70;;;;;;5032447;28;20469;-72
2022/02/05 16:33:31;;;;;;;0.70;0.70;;;7.00;91.10;;;;;;5031067;28;20385;-72
2022/02/05 16:36:06;;;;;;;0.40;0.30;;;6.90;91.00;;;;;;5032190;28;20740;-73